Time;durP1;ratioP1;P1;durP2;ratioP2;P2;SDS_P1;SDS_P2;PMS_P1;PMS_P2;Temp;Humidity;BMP_temperature;BMP_pressure;BME280_temperature;BME280_humidity;BME280_pressure;Samples;Min_cycle;Max_cycle;Signal;HPM_P1;HPM_P2
2022/08/15 00:01:16;;;;;;;12.35;8.45;;;25.40;55.90;;;;;;5114053;28;20099;-73
2022/08/15 00:03:46;;;;;;;10.02;7.57;;;25.30;55.80;;;;;;5114007;28;20028;-73
2022/08/15 00:06:21;;;;;;;11.07;7.78;;;25.40;56.20;;;;;;5113714;28;20377;-73
2022/08/15 00:08:50;;;;;;;10.38;7.47;;;25.40;56.00;;;;;;5114135;28;20099;-73
2022/08/15 00:11:24;;;;;;;10.88;8.45;;;25.30;56.20;;;;;;5113928;28;20073;-73
2022/08/15 00:13:56;;;;;;;10.73;7.93;;;25.30;56.80;;;;;;5113922;28;20556;-73
2022/08/15 00:16:21;;;;;;;10.63;8.10;;;25.30;56.90;;;;;;5113744;28;20054;-73
2022/08/15 00:18:48;;;;;;;10.07;7.72;;;25.20;57.30;;;;;;5113758;28;20083;-73
2022/08/15 00:21:17;;;;;;;11.70;8.50;;;25.20;56.40;;;;;;5113754;28;20028;-73
2022/08/15 00:23:43;;;;;;;13.20;9.20;;;25.00;55.30;;;;;;5113710;28;20031;-73
2022/08/15 00:26:11;;;;;;;11.02;9.30;;;24.80;55.80;;;;;;5113623;28;20084;-73
2022/08/15 00:28:37;;;;;;;12.60;8.80;;;24.80;56.30;;;;;;5113573;28;20028;-73
2022/08/15 00:31:05;;;;;;;12.85;9.35;;;24.80;56.20;;;;;;5113615;28;20028;-73
2022/08/15 00:33:31;;;;;;;12.45;9.10;;;24.90;56.20;;;;;;5113601;28;20028;-73
2022/08/15 00:35:58;;;;;;;14.15;9.25;;;24.80;56.40;;;;;;5113540;28;20028;-73
2022/08/15 00:38:26;;;;;;;12.68;9.48;;;24.90;56.20;;;;;;5113575;28;20044;-73
2022/08/15 00:43:49;;;;;;;14.10;9.23;;;24.90;56.20;;;;;;5113758;28;20058;-73
2022/08/15 00:46:16;;;;;;;12.15;8.80;;;24.90;56.20;;;;;;5112508;28;20028;-73
2022/08/15 00:48:42;;;;;;;14.40;9.32;;;24.90;56.40;;;;;;5113431;28;20024;-73
2022/08/15 00:51:22;;;;;;;14.32;9.48;;;24.80;56.60;;;;;;5113423;28;20108;-73
2022/08/15 00:54:38;;;;;;;11.85;9.20;;;24.80;56.80;;;;;;5113461;28;20023;-73
2022/08/15 00:57:32;;;;;;;12.98;9.23;;;24.90;56.30;;;;;;5091313;28;20024;-73
2022/08/15 01:00:04;;;;;;;16.70;8.65;;;25.00;56.60;;;;;;5091330;28;20044;-73
2022/08/15 01:02:32;;;;;;;15.38;9.23;;;25.00;57.20;;;;;;5108572;28;20121;-73
2022/08/15 01:04:59;;;;;;;13.07;9.40;;;25.00;57.00;;;;;;5113247;28;20028;-73
2022/08/15 01:07:26;;;;;;;12.02;9.00;;;25.00;57.10;;;;;;5113005;28;20426;-73
2022/08/15 01:09:52;;;;;;;14.25;9.43;;;25.00;56.90;;;;;;5113285;28;20042;-73
2022/08/15 01:12:25;;;;;;;13.88;9.60;;;24.90;56.60;;;;;;5113232;28;20044;-73
2022/08/15 01:14:58;;;;;;;13.65;9.93;;;24.70;57.20;;;;;;5113250;28;20028;-73
2022/08/15 01:17:27;;;;;;;13.90;10.55;;;24.70;57.50;;;;;;5113243;28;20044;-73
2022/08/15 01:20:09;;;;;;;12.27;9.25;;;24.60;57.70;;;;;;5113163;28;20067;-73
2022/08/15 01:22:47;;;;;;;11.77;9.10;;;24.60;57.40;;;;;;5113344;28;20021;-73
2022/08/15 01:25:13;;;;;;;12.48;8.88;;;24.60;57.40;;;;;;5113192;28;20032;-73
2022/08/15 01:27:47;;;;;;;11.32;8.75;;;24.50;57.90;;;;;;5113062;28;20025;-73
2022/08/15 01:30:17;;;;;;;12.82;9.00;;;24.50;57.70;;;;;;5113012;28;20016;-73
2022/08/15 01:32:43;;;;;;;9.80;7.88;;;24.50;57.70;;;;;;5113086;28;20017;-73
2022/08/15 01:35:10;;;;;;;9.65;7.85;;;24.50;57.20;;;;;;5113000;28;20028;-73
2022/08/15 01:37:38;;;;;;;10.25;7.30;;;24.50;57.70;;;;;;5112987;28;20031;-73
2022/08/15 01:40:19;;;;;;;10.18;7.90;;;24.40;57.40;;;;;;5111946;28;20020;-73
2022/08/15 01:42:48;;;;;;;10.85;8.00;;;24.50;57.00;;;;;;5114074;28;20025;-73
2022/08/15 01:45:26;;;;;;;9.07;7.32;;;24.50;57.40;;;;;;5116552;28;20083;-73
2022/08/15 01:48:01;;;;;;;9.80;7.90;;;24.50;57.50;;;;;;5116649;28;20403;-73
2022/08/15 01:50:39;;;;;;;9.57;8.13;;;24.50;57.50;;;;;;5116622;28;20024;-73
2022/08/15 01:53:27;;;;;;;9.80;7.68;;;24.40;57.20;;;;;;5116696;28;20024;-73
2022/08/15 01:55:59;;;;;;;9.07;7.22;;;24.30;58.10;;;;;;5116492;28;20028;-74
2022/08/15 01:58:25;;;;;;;12.15;8.18;;;24.30;57.70;;;;;;5116448;28;20024;-73
2022/08/15 02:00:57;;;;;;;10.63;8.40;;;24.30;57.40;;;;;;5116368;28;20036;-73
2022/08/15 02:03:33;;;;;;;10.40;7.90;;;24.40;57.60;;;;;;5116327;28;20107;-73
2022/08/15 02:06:23;;;;;;;11.68;8.50;;;24.30;58.30;;;;;;5116049;28;20044;-73
2022/08/15 02:08:52;;;;;;;10.77;8.32;;;24.30;58.50;;;;;;5116216;28;20020;-73
2022/08/15 02:11:21;;;;;;;12.52;8.70;;;24.10;58.60;;;;;;5116429;28;20044;-73
2022/08/15 02:13:50;;;;;;;12.38;8.85;;;24.20;59.30;;;;;;5116153;28;20518;-73
2022/08/15 02:16:17;;;;;;;10.73;8.02;;;24.20;58.80;;;;;;5116077;28;20035;-73
2022/08/15 02:18:43;;;;;;;11.50;8.13;;;24.10;58.30;;;;;;5116043;28;20020;-73
2022/08/15 02:21:09;;;;;;;10.50;8.45;;;23.90;58.60;;;;;;5115965;28;20028;-73
2022/08/15 02:23:35;;;;;;;11.55;8.25;;;23.70;59.00;;;;;;5115921;28;20048;-73
2022/08/15 02:26:03;;;;;;;13.52;8.73;;;23.60;59.50;;;;;;5115794;28;20028;-73
2022/08/15 02:28:28;;;;;;;13.40;9.23;;;23.40;60.40;;;;;;5115706;28;20028;-73
2022/08/15 02:30:54;;;;;;;14.40;9.80;;;23.30;60.50;;;;;;5115785;28;20046;-73
2022/08/15 02:33:21;;;;;;;14.90;10.77;;;23.30;60.40;;;;;;5115785;28;20058;-73
2022/08/15 02:35:48;;;;;;;17.35;11.55;;;23.20;60.50;;;;;;5114760;28;20043;-73
2022/08/15 02:38:14;;;;;;;17.63;12.00;;;23.30;60.60;;;;;;5115637;28;20059;-73
2022/08/15 02:40:40;;;;;;;18.35;12.07;;;23.30;60.50;;;;;;5115778;28;20036;-73
2022/08/15 02:43:09;;;;;;;19.92;12.63;;;23.30;60.50;;;;;;5115552;28;20024;-73
2022/08/15 02:45:39;;;;;;;18.00;12.73;;;23.30;60.30;;;;;;5115637;28;20128;-73
2022/08/15 02:48:07;;;;;;;20.10;12.93;;;23.30;60.50;;;;;;5115466;28;20032;-73
2022/08/15 02:50:35;;;;;;;18.63;13.48;;;23.30;60.60;;;;;;5115380;28;20038;-73
2022/08/15 02:53:09;;;;;;;19.52;12.90;;;23.30;60.30;;;;;;5115548;28;20024;-73
2022/08/15 02:55:36;;;;;;;17.60;12.82;;;23.30;60.10;;;;;;5114381;28;20032;-73
2022/08/15 02:58:02;;;;;;;20.08;12.82;;;23.20;60.10;;;;;;5115273;28;20035;-73
2022/08/15 03:00:28;;;;;;;19.67;12.88;;;23.20;60.10;;;;;;5115215;28;20024;-73
2022/08/15 03:03:05;;;;;;;19.67;12.82;;;23.20;60.20;;;;;;5115184;28;20028;-73
2022/08/15 03:05:31;;;;;;;20.70;12.90;;;23.10;60.10;;;;;;5114897;28;20027;-73
2022/08/15 03:07:57;;;;;;;17.98;12.93;;;23.10;60.20;;;;;;5115117;28;20028;-73
2022/08/15 03:10:24;;;;;;;16.73;12.00;;;23.00;60.10;;;;;;5115012;28;20086;-73
2022/08/15 03:12:56;;;;;;;17.13;11.98;;;23.00;59.80;;;;;;5114989;28;20020;-73
2022/08/15 03:15:25;;;;;;;16.40;11.70;;;23.00;59.30;;;;;;5115012;28;20020;-73
2022/08/15 03:17:52;;;;;;;16.80;11.55;;;23.00;59.10;;;;;;5114877;28;20039;-73
2022/08/15 03:20:19;;;;;;;16.15;11.63;;;22.90;59.10;;;;;;5114859;28;20020;-73
2022/08/15 03:22:47;;;;;;;16.83;11.50;;;22.90;59.00;;;;;;5114780;28;20038;-73
2022/08/15 03:25:14;;;;;;;14.85;11.25;;;22.90;58.90;;;;;;5114675;28;20075;-73
2022/08/15 03:27:41;;;;;;;16.08;10.90;;;23.00;58.60;;;;;;5114680;28;20028;-73
2022/08/15 03:30:09;;;;;;;12.98;9.65;;;22.90;57.70;;;;;;5114554;28;20024;-73
2022/08/15 03:32:49;;;;;;;13.65;9.35;;;22.90;57.10;;;;;;5113640;28;20043;-73
2022/08/15 03:35:17;;;;;;;11.02;8.40;;;22.90;57.00;;;;;;5114585;28;20020;-73
2022/08/15 03:37:43;;;;;;;11.93;8.50;;;22.90;56.10;;;;;;5114475;28;20059;-73
2022/08/15 03:40:10;;;;;;;11.32;7.88;;;22.90;55.60;;;;;;5114459;28;20079;-73
2022/08/15 03:42:37;;;;;;;11.38;7.65;;;22.80;55.20;;;;;;5114432;28;20084;-73
2022/08/15 03:45:11;;;;;;;9.98;7.03;;;22.80;54.90;;;;;;5114310;28;20057;-73
2022/08/15 03:47:37;;;;;;;9.23;6.60;;;22.80;54.80;;;;;;5114409;28;20016;-73
2022/08/15 03:50:05;;;;;;;8.35;6.47;;;22.70;54.60;;;;;;5114384;28;20036;-73
2022/08/15 03:52:30;;;;;;;9.48;6.65;;;22.70;54.20;;;;;;5114410;28;20016;-73
2022/08/15 03:55:01;;;;;;;9.23;6.35;;;22.70;54.10;;;;;;5114188;28;20092;-73
2022/08/15 03:57:26;;;;;;;8.40;5.97;;;22.70;53.80;;;;;;5114205;28;20028;-73
2022/08/15 03:59:52;;;;;;;8.23;5.50;;;22.60;53.50;;;;;;5114110;28;20399;-73
2022/08/15 04:02:23;;;;;;;8.13;5.57;;;22.70;53.40;;;;;;5114077;28;20027;-73
2022/08/15 04:04:49;;;;;;;8.25;5.80;;;22.70;53.00;;;;;;5114023;28;20103;-73
2022/08/15 04:07:16;;;;;;;9.98;5.75;;;22.70;53.00;;;;;;5113536;28;20052;-73
2022/08/15 04:09:43;;;;;;;10.18;6.10;;;22.70;53.20;;;;;;5113942;28;20016;-73
2022/08/15 04:12:09;;;;;;;8.73;5.57;;;22.70;54.10;;;;;;5113958;28;20107;-72
2022/08/15 04:14:35;;;;;;;6.53;5.38;;;22.70;53.20;;;;;;5113919;28;20027;-73
2022/08/15 04:17:01;;;;;;;7.50;5.28;;;22.70;52.80;;;;;;5113867;28;20036;-73
2022/08/15 04:19:27;;;;;;;10.20;5.47;;;22.70;52.70;;;;;;5113790;28;20028;-73
2022/08/15 04:21:52;;;;;;;7.00;5.63;;;22.60;52.30;;;;;;5113749;28;20099;-73
2022/08/15 04:24:18;;;;;;;7.38;5.75;;;22.60;52.30;;;;;;5113740;28;20028;-73
2022/08/15 04:26:44;;;;;;;7.53;5.50;;;22.50;52.00;;;;;;5113633;28;20467;-73
2022/08/15 04:29:10;;;;;;;7.38;5.32;;;22.50;52.00;;;;;;5113581;28;20016;-73
2022/08/15 04:31:37;;;;;;;8.73;5.78;;;22.50;52.00;;;;;;5113637;28;20024;-73
2022/08/15 04:34:03;;;;;;;8.55;5.28;;;22.50;51.90;;;;;;5113595;28;20035;-73
2022/08/15 04:36:30;;;;;;;8.48;4.95;;;22.40;52.00;;;;;;5113577;28;20047;-73
2022/08/15 04:38:55;;;;;;;7.50;4.95;;;22.30;52.10;;;;;;5113580;28;20043;-73
2022/08/15 04:41:21;;;;;;;6.70;5.50;;;22.30;52.30;;;;;;5113516;28;20043;-73
2022/08/15 04:43:47;;;;;;;7.68;5.53;;;22.30;52.20;;;;;;5113529;28;20042;-73
2022/08/15 04:46:13;;;;;;;8.43;5.78;;;22.30;52.30;;;;;;5113404;28;20012;-73
2022/08/15 04:48:39;;;;;;;7.50;5.30;;;22.30;52.30;;;;;;5113440;28;20016;-73
2022/08/15 04:51:06;;;;;;;9.38;4.97;;;22.30;52.30;;;;;;5113425;28;20035;-73
2022/08/15 04:53:33;;;;;;;6.60;5.35;;;22.30;52.30;;;;;;5113430;28;20020;-73
2022/08/15 04:56:01;;;;;;;7.97;5.50;;;22.30;52.30;;;;;;5113529;28;20028;-73
2022/08/15 04:58:28;;;;;;;7.00;5.28;;;22.30;52.30;;;;;;5113285;28;20043;-73
2022/08/15 05:00:57;;;;;;;8.93;5.70;;;22.30;52.50;;;;;;5113462;28;20024;-73
2022/08/15 05:03:23;;;;;;;9.07;5.55;;;22.20;52.60;;;;;;5113315;28;20024;-73
2022/08/15 05:05:53;;;;;;;8.75;5.15;;;22.20;52.50;;;;;;5113031;28;20056;-73
2022/08/15 05:08:20;;;;;;;9.05;5.55;;;22.20;52.70;;;;;;5113354;28;20017;-73
2022/08/15 05:10:54;;;;;;;6.68;5.18;;;22.20;53.70;;;;;;5113262;28;20462;-73
2022/08/15 05:13:24;;;;;;;8.00;5.60;;;22.30;53.00;;;;;;5113270;28;20036;-73
2022/08/15 05:15:50;;;;;;;10.45;5.60;;;22.20;52.90;;;;;;5113336;28;20080;-73
2022/08/15 05:18:17;;;;;;;6.53;5.10;;;22.30;53.30;;;;;;5114075;28;20387;-73
2022/08/15 05:20:43;;;;;;;9.65;5.88;;;22.20;53.30;;;;;;5117178;28;20109;-73
2022/08/15 05:23:12;;;;;;;8.55;5.65;;;22.20;53.50;;;;;;5117147;28;20058;-73
2022/08/15 05:25:41;;;;;;;7.70;5.32;;;22.20;53.80;;;;;;5117027;28;20028;-73
2022/08/15 05:28:07;;;;;;;10.68;6.22;;;22.20;53.80;;;;;;5117043;28;20015;-73
2022/08/15 05:30:33;;;;;;;10.88;5.82;;;22.20;54.00;;;;;;5116960;28;20115;-73
2022/08/15 05:33:11;;;;;;;9.70;6.03;;;22.20;54.20;;;;;;5116942;28;20028;-73
2022/08/15 05:35:42;;;;;;;7.65;5.88;;;22.20;54.70;;;;;;5116946;28;20036;-73
2022/08/15 05:38:14;;;;;;;8.47;6.23;;;22.20;55.00;;;;;;5117072;28;20024;-73
2022/08/15 05:41:05;;;;;;;7.57;5.43;;;22.20;55.00;;;;;;5116968;28;20031;-72
2022/08/15 05:43:39;;;;;;;9.93;5.90;;;22.20;55.30;;;;;;5105314;28;20085;-72
2022/08/15 05:46:46;;;;;;;8.77;5.68;;;22.30;55.60;;;;;;5116587;28;20039;-73
2022/08/15 05:49:45;;;;;;;6.95;5.50;;;22.30;56.10;;;;;;5116806;28;20063;-72
2022/08/15 05:52:28;;;;;;;9.95;5.85;;;22.40;56.60;;;;;;5116624;28;20020;-72
2022/08/15 05:55:12;;;;;;;10.05;5.55;;;22.50;56.60;;;;;;5116514;28;20031;-73
2022/08/15 05:58:00;;;;;;;6.53;5.30;;;22.50;57.10;;;;;;5116440;28;20375;-73
2022/08/15 06:00:26;;;;;;;12.05;5.45;;;22.60;56.90;;;;;;5116450;28;20050;-73
2022/08/15 06:03:15;;;;;;;7.07;5.18;;;22.70;56.90;;;;;;5116356;28;20040;-72
2022/08/15 06:05:46;;;;;;;7.72;5.63;;;22.70;56.80;;;;;;5116088;28;20024;-72
2022/08/15 06:08:17;;;;;;;9.07;5.47;;;22.80;57.00;;;;;;5116320;28;20028;-73
2022/08/15 06:11:03;;;;;;;9.80;6.15;;;22.80;57.00;;;;;;5116279;28;20047;-73
2022/08/15 06:13:38;;;;;;;7.45;5.55;;;22.90;57.30;;;;;;5116175;28;20048;-73
2022/08/15 06:16:30;;;;;;;10.02;5.20;;;22.90;57.20;;;;;;5116251;28;20039;-72
2022/08/15 06:19:01;;;;;;;7.97;5.70;;;22.90;57.20;;;;;;5116234;28;20035;-73
2022/08/15 06:21:33;;;;;;;9.20;5.13;;;23.00;57.60;;;;;;5116015;28;20049;-73
2022/08/15 06:24:30;;;;;;;7.43;5.37;;;23.10;57.40;;;;;;5116172;28;20025;-73
2022/08/15 06:27:14;;;;;;;8.52;5.47;;;23.10;57.60;;;;;;5115873;28;20044;-73
2022/08/15 06:30:21;;;;;;;7.95;6.35;;;23.10;57.30;;;;;;5115705;28;20024;-73
2022/08/15 06:32:57;;;;;;;10.85;6.03;;;23.20;57.50;;;;;;5104877;28;20040;-73
2022/08/15 06:35:38;;;;;;;9.50;6.05;;;23.20;57.40;;;;;;5115759;28;20028;-72
2022/08/15 06:38:22;;;;;;;10.35;6.15;;;23.20;57.50;;;;;;5115738;28;20024;-73
2022/08/15 06:41:01;;;;;;;11.52;6.18;;;23.20;57.40;;;;;;5115675;28;20036;-72
2022/08/15 06:43:27;;;;;;;11.82;6.30;;;23.20;58.80;;;;;;5115652;28;20028;-73
2022/08/15 06:45:55;;;;;;;10.98;5.90;;;23.20;58.00;;;;;;5115450;28;20039;-72
2022/08/15 06:48:28;;;;;;;15.32;6.43;;;23.30;58.10;;;;;;5115489;28;20046;-72
2022/08/15 06:50:56;;;;;;;9.77;5.68;;;23.30;58.40;;;;;;5115501;28;20031;-72
2022/08/15 06:53:31;;;;;;;9.68;5.35;;;23.30;58.50;;;;;;5115363;28;20039;-72
2022/08/15 06:56:08;;;;;;;9.93;5.20;;;23.30;58.60;;;;;;5115373;28;20103;-72
2022/08/15 06:58:47;;;;;;;8.60;4.55;;;23.30;58.30;;;;;;5114321;28;20463;-73
2022/08/15 07:01:33;;;;;;;7.07;4.82;;;23.40;58.30;;;;;;5115394;28;20024;-72
2022/08/15 07:04:02;;;;;;;8.93;4.72;;;23.40;58.50;;;;;;5115360;28;20046;-73
2022/08/15 07:06:39;;;;;;;7.47;4.22;;;23.40;58.00;;;;;;5114876;28;20036;-72
2022/08/15 07:09:35;;;;;;;5.60;4.10;;;23.50;58.50;;;;;;5115168;28;20020;-73
2022/08/15 07:12:13;;;;;;;6.25;4.75;;;23.50;59.50;;;;;;5105870;28;20032;-73
2022/08/15 07:14:53;;;;;;;8.98;4.38;;;23.50;58.50;;;;;;5115005;28;20053;-72
2022/08/15 07:17:46;;;;;;;7.05;5.10;;;23.50;58.40;;;;;;5115128;28;20028;-73
2022/08/15 07:20:12;;;;;;;10.68;4.30;;;23.50;59.00;;;;;;5114908;28;20016;-73
2022/08/15 07:22:39;;;;;;;8.35;4.72;;;23.50;58.80;;;;;;5114817;28;20024;-72
2022/08/15 07:25:18;;;;;;;6.97;4.65;;;23.40;58.80;;;;;;5114819;28;20023;-72
2022/08/15 07:28:05;;;;;;;9.65;4.80;;;23.40;58.80;;;;;;5114776;28;20021;-72
2022/08/15 07:30:58;;;;;;;6.15;4.60;;;23.40;59.20;;;;;;5114716;28;20103;-72
2022/08/15 07:33:34;;;;;;;7.00;4.60;;;23.50;59.90;;;;;;5114637;28;20020;-72
2022/08/15 07:36:24;;;;;;;6.63;4.20;;;23.50;59.50;;;;;;5114618;28;20020;-72
2022/08/15 07:38:51;;;;;;;6.32;4.60;;;23.50;59.60;;;;;;5111642;28;20115;-73
2022/08/15 07:41:22;;;;;;;10.10;4.63;;;23.50;59.30;;;;;;5113930;28;20110;-72
2022/08/15 07:43:56;;;;;;;7.38;4.60;;;23.60;59.40;;;;;;5114398;28;20035;-73
2022/08/15 07:46:55;;;;;;;6.95;4.38;;;23.60;59.30;;;;;;5114320;28;20036;-72
2022/08/15 07:49:25;;;;;;;7.35;4.75;;;23.60;59.50;;;;;;5112022;28;20033;-72
2022/08/15 07:52:21;;;;;;;9.25;4.93;;;23.60;59.70;;;;;;5114291;28;20016;-72
2022/08/15 07:54:52;;;;;;;7.15;4.40;;;23.60;59.70;;;;;;5114228;28;20027;-72
2022/08/15 07:57:38;;;;;;;7.00;4.10;;;23.60;59.90;;;;;;5114213;28;20020;-73
2022/08/15 08:00:15;;;;;;;9.13;4.30;;;23.70;60.00;;;;;;5114303;28;20024;-72
2022/08/15 08:02:56;;;;;;;6.03;4.30;;;23.80;60.30;;;;;;5114153;28;20021;-72
2022/08/15 08:05:26;;;;;;;5.93;3.88;;;23.80;59.40;;;;;;5114125;28;20021;-72
2022/08/15 08:07:53;;;;;;;7.85;4.53;;;23.80;59.70;;;;;;5113833;28;20044;-73
2022/08/15 08:10:27;;;;;;;8.38;4.78;;;23.90;59.40;;;;;;5114018;28;20032;-72
2022/08/15 08:13:00;;;;;;;8.75;4.82;;;23.80;59.10;;;;;;5114062;28;20027;-73
2022/08/15 08:16:18;;;;;;;7.70;4.90;;;23.90;59.20;;;;;;5114015;28;20024;-73
2022/08/15 08:18:54;;;;;;;7.35;4.80;;;24.10;59.70;;;;;;5104699;28;20039;-73
2022/08/15 08:21:49;;;;;;;7.75;4.88;;;24.20;60.20;;;;;;5113835;28;20080;-72
2022/08/15 08:24:42;;;;;;;7.53;4.63;;;24.30;59.30;;;;;;5113420;28;20089;-72
2022/08/15 08:27:26;;;;;;;9.38;5.40;;;24.40;58.70;;;;;;5113669;28;20036;-72
2022/08/15 08:29:55;;;;;;;11.07;5.35;;;24.50;58.90;;;;;;5113640;28;20080;-72
2022/08/15 08:32:53;;;;;;;11.00;5.07;;;24.50;58.00;;;;;;5113621;28;20016;-72
2022/08/15 08:35:47;;;;;;;7.90;4.57;;;24.50;57.80;;;;;;5113735;28;20031;-72
2022/08/15 08:38:42;;;;;;;8.73;5.10;;;24.50;57.70;;;;;;5113727;28;20024;-72
2022/08/15 08:41:28;;;;;;;7.22;4.70;;;24.40;57.70;;;;;;5113557;28;20020;-73
2022/08/15 08:44:00;;;;;;;9.38;5.00;;;24.50;58.40;;;;;;5113519;28;20027;-72
2022/08/15 08:46:41;;;;;;;12.18;5.60;;;24.40;57.90;;;;;;5113557;28;20028;-72
2022/08/15 08:49:21;;;;;;;7.80;5.05;;;24.40;57.70;;;;;;5113541;28;20099;-72
2022/08/15 08:51:53;;;;;;;9.45;4.88;;;24.40;58.20;;;;;;5113482;28;20024;-72
2022/08/15 08:54:27;;;;;;;6.75;5.07;;;24.40;58.40;;;;;;5117420;28;20024;-73
2022/08/15 08:56:57;;;;;;;7.40;4.53;;;24.50;58.70;;;;;;5117624;28;20024;-73
2022/08/15 08:59:38;;;;;;;6.88;4.78;;;24.40;58.50;;;;;;5117628;28;20024;-73
2022/08/15 09:02:15;;;;;;;8.88;5.20;;;24.50;59.40;;;;;;5117615;28;20054;-73
2022/08/15 09:04:57;;;;;;;7.60;4.80;;;24.50;59.40;;;;;;5117535;28;20020;-73
2022/08/15 09:07:28;;;;;;;7.88;4.80;;;24.50;58.70;;;;;;5117353;28;20040;-73
2022/08/15 09:10:00;;;;;;;6.33;4.80;;;24.50;59.00;;;;;;5117465;28;20012;-72
2022/08/15 09:15:21;;;;;;;11.15;5.15;;;24.50;59.10;;;;;;5117314;28;20031;-73
2022/08/15 09:17:55;;;;;;;6.37;4.90;;;24.50;59.70;;;;;;5117336;28;20028;-73
2022/08/15 09:20:36;;;;;;;7.57;5.13;;;24.50;59.90;;;;;;5117263;28;20020;-72
2022/08/15 09:23:05;;;;;;;7.10;5.20;;;24.50;60.30;;;;;;5117110;28;20035;-72
2022/08/15 09:25:35;;;;;;;10.63;5.60;;;24.50;59.10;;;;;;5117107;28;20024;-73
2022/08/15 09:28:09;;;;;;;9.15;5.47;;;24.40;58.50;;;;;;5116991;28;20042;-72
2022/08/15 09:30:35;;;;;;;8.43;5.97;;;24.40;58.30;;;;;;5117184;28;20069;-73
2022/08/15 09:33:22;;;;;;;8.45;5.85;;;24.30;58.60;;;;;;5116945;28;20043;-73
2022/08/15 09:36:19;;;;;;;7.40;5.50;;;24.40;58.90;;;;;;5116895;28;20031;-72
2022/08/15 09:39:03;;;;;;;9.05;5.60;;;24.40;59.00;;;;;;5117009;28;20020;-72
2022/08/15 09:41:44;;;;;;;8.82;5.28;;;24.30;59.70;;;;;;5116795;28;20016;-72
2022/08/15 09:44:47;;;;;;;6.25;4.88;;;24.30;60.30;;;;;;5116935;28;20027;-72
2022/08/15 09:47:16;;;;;;;12.60;5.80;;;24.30;60.50;;;;;;5115737;28;20087;-72
2022/08/15 09:50:10;;;;;;;10.98;5.78;;;24.20;60.70;;;;;;5116780;28;20029;-72
2022/08/15 09:53:14;;;;;;;11.40;6.13;;;24.10;61.50;;;;;;5116607;28;20017;-73
2022/08/15 09:55:46;;;;;;;10.88;5.95;;;24.10;62.50;;;;;;5115386;28;20100;-73
2022/08/15 09:58:25;;;;;;;10.75;6.40;;;24.10;63.00;;;;;;5116670;28;20024;-73
2022/08/15 10:01:14;;;;;;;9.65;6.30;;;24.10;64.90;;;;;;5116457;28;20040;-73
2022/08/15 10:03:46;;;;;;;12.77;6.03;;;24.10;64.10;;;;;;5115928;28;20028;-73
2022/08/15 10:06:13;;;;;;;11.90;6.70;;;24.10;65.10;;;;;;5116088;28;20052;-73
2022/08/15 10:08:52;;;;;;;9.52;5.90;;;24.10;65.00;;;;;;5116287;28;20016;-73
2022/08/15 10:11:24;;;;;;;10.93;6.28;;;24.10;65.00;;;;;;5116101;28;20020;-72
2022/08/15 10:14:04;;;;;;;11.73;6.85;;;24.20;64.20;;;;;;5116412;28;20113;-73
2022/08/15 10:16:39;;;;;;;10.32;6.47;;;24.20;64.10;;;;;;5116176;28;20024;-72
2022/08/15 10:19:25;;;;;;;8.13;6.25;;;24.30;63.60;;;;;;5116075;28;20031;-73
2022/08/15 10:21:54;;;;;;;10.90;6.07;;;24.30;63.10;;;;;;5116067;28;20024;-73
2022/08/15 10:24:32;;;;;;;10.57;6.07;;;24.30;62.80;;;;;;5116135;28;20023;-72
2022/08/15 10:27:22;;;;;;;12.27;5.80;;;24.30;62.60;;;;;;5115838;28;20058;-72
2022/08/15 10:29:52;;;;;;;10.15;6.10;;;24.30;62.00;;;;;;5115989;28;20035;-72
2022/08/15 10:32:39;;;;;;;10.55;6.57;;;24.20;63.00;;;;;;5115824;28;20030;-73
2022/08/15 10:35:24;;;;;;;8.23;5.57;;;24.20;62.50;;;;;;5115821;28;20024;-72
2022/08/15 10:38:00;;;;;;;7.30;5.03;;;24.20;62.80;;;;;;5115790;28;20012;-73
2022/08/15 10:40:45;;;;;;;9.68;6.32;;;24.30;62.80;;;;;;5115667;28;20020;-72
2022/08/15 10:43:23;;;;;;;8.88;5.90;;;24.30;62.90;;;;;;5115641;28;20046;-72
2022/08/15 10:46:17;;;;;;;8.38;6.13;;;24.40;62.50;;;;;;5115654;28;20034;-72
2022/08/15 10:49:02;;;;;;;9.10;6.00;;;24.40;62.60;;;;;;5115525;28;20035;-72
2022/08/15 10:51:40;;;;;;;11.85;5.97;;;24.40;62.90;;;;;;5115650;28;20024;-73
2022/08/15 10:54:12;;;;;;;9.43;5.72;;;24.50;62.70;;;;;;5115392;28;20016;-73
2022/08/15 10:56:39;;;;;;;12.35;7.22;;;24.50;62.40;;;;;;5115520;28;20028;-73
2022/08/15 10:59:15;;;;;;;12.23;6.85;;;24.50;62.00;;;;;;5115337;28;20048;-72
2022/08/15 11:01:44;;;;;;;10.88;6.00;;;24.50;62.00;;;;;;5115332;28;20059;-72
2022/08/15 11:04:37;;;;;;;8.25;6.03;;;24.50;62.20;;;;;;5115212;28;20024;-72
2022/08/15 11:07:33;;;;;;;10.82;6.50;;;24.50;62.40;;;;;;5112227;28;20051;-73
2022/08/15 11:10:02;;;;;;;10.15;6.60;;;24.50;61.80;;;;;;5115153;28;20020;-72
2022/08/15 11:12:31;;;;;;;10.75;6.53;;;24.60;61.90;;;;;;5115152;28;20016;-72
2022/08/15 11:15:04;;;;;;;9.88;6.40;;;24.60;62.20;;;;;;5114380;28;20017;-72
2022/08/15 11:17:35;;;;;;;9.15;5.57;;;24.60;62.30;;;;;;5114881;28;20024;-72
2022/08/15 11:20:14;;;;;;;9.90;5.45;;;24.60;61.60;;;;;;5115123;28;20031;-72
2022/08/15 11:23:00;;;;;;;9.02;5.55;;;24.60;62.00;;;;;;5115026;28;20031;-72
2022/08/15 11:25:29;;;;;;;10.43;6.35;;;24.60;61.40;;;;;;5114781;28;20026;-72
2022/08/15 11:28:25;;;;;;;7.50;5.65;;;24.70;61.90;;;;;;5114663;28;20027;-72
2022/08/15 11:31:01;;;;;;;10.85;6.07;;;24.70;61.90;;;;;;5110160;28;20384;-73
2022/08/15 11:33:42;;;;;;;7.72;5.55;;;24.80;62.00;;;;;;5114698;28;20016;-72
2022/08/15 11:36:10;;;;;;;8.55;5.55;;;24.80;61.50;;;;;;5114794;28;20081;-72
2022/08/15 11:38:42;;;;;;;10.63;5.55;;;24.80;60.70;;;;;;5114533;28;20035;-72
2022/08/15 11:41:08;;;;;;;7.85;5.60;;;25.00;61.60;;;;;;5114604;28;20017;-72
2022/08/15 11:43:34;;;;;;;11.30;6.03;;;25.10;62.70;;;;;;5114481;28;20572;-73
2022/08/15 11:46:00;;;;;;;12.25;5.95;;;25.30;61.80;;;;;;5114336;28;20028;-72
2022/08/15 11:48:31;;;;;;;12.13;5.88;;;25.40;61.20;;;;;;5114358;28;20040;-72
2022/08/15 11:51:14;;;;;;;9.32;5.90;;;25.40;61.50;;;;;;5114503;28;20016;-72
2022/08/15 11:54:08;;;;;;;10.38;5.85;;;25.40;60.00;;;;;;5114431;28;20077;-72
2022/08/15 11:57:04;;;;;;;11.10;6.38;;;25.50;59.80;;;;;;5114253;28;20035;-73
2022/08/15 11:59:36;;;;;;;9.35;5.75;;;25.50;60.20;;;;;;5109488;28;20048;-73
2022/08/15 12:02:20;;;;;;;8.13;5.75;;;25.50;59.60;;;;;;5114171;28;20083;-72
2022/08/15 12:04:49;;;;;;;10.10;6.05;;;25.50;58.30;;;;;;5114060;28;20034;-72
2022/08/15 12:07:26;;;;;;;10.05;6.32;;;25.50;59.30;;;;;;5112800;28;20036;-72
2022/08/15 12:10:17;;;;;;;8.48;5.60;;;25.70;59.40;;;;;;5114064;28;20027;-72
2022/08/15 12:12:49;;;;;;;8.77;5.50;;;25.90;59.90;;;;;;5113975;28;20009;-72
2022/08/15 12:15:32;;;;;;;9.57;6.40;;;26.00;58.80;;;;;;5113979;28;20024;-72
2022/08/15 12:18:20;;;;;;;7.43;5.55;;;26.20;59.00;;;;;;5113873;28;20031;-73
2022/08/15 12:20:54;;;;;;;11.20;6.20;;;26.30;58.60;;;;;;5114018;28;20016;-72
2022/08/15 12:23:35;;;;;;;11.00;6.57;;;26.50;58.00;;;;;;5113769;28;20080;-72
2022/08/15 12:26:02;;;;;;;11.60;6.00;;;26.40;57.00;;;;;;5113809;28;20032;-72
2022/08/15 12:28:30;;;;;;;11.50;6.00;;;26.30;57.70;;;;;;5113542;28;20055;-72
2022/08/15 12:30:59;;;;;;;9.27;5.63;;;26.20;57.70;;;;;;5113682;28;20491;-73
2022/08/15 12:33:25;;;;;;;10.57;5.78;;;26.20;58.80;;;;;;5113631;28;20020;-73
2022/08/15 12:35:51;;;;;;;9.52;6.05;;;26.20;57.80;;;;;;5113643;28;20032;-72
2022/08/15 12:38:18;;;;;;;8.30;5.43;;;26.30;58.50;;;;;;5113609;28;20024;-72
2022/08/15 12:40:43;;;;;;;12.85;6.10;;;26.40;57.60;;;;;;5112571;28;20036;-72
2022/08/15 12:43:09;;;;;;;12.95;6.10;;;26.30;57.50;;;;;;5113555;28;20079;-72
2022/08/15 12:45:35;;;;;;;8.20;5.38;;;26.30;58.00;;;;;;5113431;28;20028;-72
2022/08/15 12:48:03;;;;;;;8.93;5.85;;;26.30;56.80;;;;;;5112684;28;20048;-73
2022/08/15 12:50:29;;;;;;;10.63;5.63;;;26.20;57.20;;;;;;5113500;28;20091;-72
2022/08/15 12:52:56;;;;;;;9.88;5.50;;;26.20;56.10;;;;;;5113478;28;20032;-72
2022/08/15 12:55:22;;;;;;;9.48;5.88;;;26.20;56.40;;;;;;5113458;28;20043;-72
2022/08/15 12:57:48;;;;;;;8.73;5.85;;;26.20;57.00;;;;;;5113541;28;20028;-72
2022/08/15 13:00:14;;;;;;;8.13;5.80;;;26.30;57.70;;;;;;5113371;28;20039;-73
2022/08/15 13:02:40;;;;;;;11.20;5.70;;;26.20;56.10;;;;;;5113385;28;20087;-72
2022/08/15 13:05:17;;;;;;;7.55;5.40;;;26.20;56.80;;;;;;5113239;28;20024;-72
2022/08/15 13:07:43;;;;;;;6.93;5.45;;;26.30;56.30;;;;;;5113042;28;20063;-72
2022/08/15 13:10:09;;;;;;;9.30;5.93;;;26.30;56.30;;;;;;5113441;28;20039;-73
2022/08/15 13:12:34;;;;;;;7.65;5.55;;;26.30;56.90;;;;;;5113250;28;20039;-72
2022/08/15 13:15:00;;;;;;;10.43;5.85;;;26.30;56.90;;;;;;5112307;28;20095;-72
2022/08/15 13:17:26;;;;;;;8.57;5.10;;;26.30;56.20;;;;;;5113355;28;20028;-72
2022/08/15 13:25:21;;;;;;;8.93;6.05;;;26.20;56.60;;;;;;5113213;28;20066;-72
2022/08/15 13:27:49;;;;;;;8.95;6.13;;;26.20;56.50;;;;;;5113174;28;20039;-73